sensor_id;sensor_type;location;lat;lon;timestamp;P1;durP1;ratioP1;P2;durP2;ratioP2
6739;SDS011;3407;49.882;10.920;2022-08-19T00:03:35;23.70;;;16.50;;
6739;SDS011;3407;49.882;10.920;2022-08-19T00:08:30;20.87;;;16.17;;
6739;SDS011;3407;49.882;10.920;2022-08-19T00:13:26;26.20;;;18.97;;
6739;SDS011;3407;49.882;10.920;2022-08-19T00:18:23;24.30;;;16.83;;
6739;SDS011;3407;49.882;10.920;2022-08-19T00:23:19;23.00;;;17.20;;
6739;SDS011;3407;49.882;10.920;2022-08-19T00:28:14;22.50;;;16.80;;
6739;SDS011;3407;49.882;10.920;2022-08-19T00:33:10;25.33;;;17.23;;
6739;SDS011;3407;49.882;10.920;2022-08-19T00:38:06;30.37;;;19.67;;
6739;SDS011;3407;49.882;10.920;2022-08-19T00:43:07;28.00;;;19.93;;
6739;SDS011;3407;49.882;10.920;2022-08-19T00:48:07;28.20;;;19.37;;
6739;SDS011;3407;49.882;10.920;2022-08-19T00:53:03;25.30;;;17.80;;
6739;SDS011;3407;49.882;10.920;2022-08-19T00:58:00;27.43;;;19.33;;
6739;SDS011;3407;49.882;10.920;2022-08-19T01:02:59;26.07;;;17.23;;
6739;SDS011;3407;49.882;10.920;2022-08-19T01:07:55;27.20;;;18.33;;
6739;SDS011;3407;49.882;10.920;2022-08-19T01:12:54;31.67;;;20.00;;
6739;SDS011;3407;49.882;10.920;2022-08-19T01:17:50;28.97;;;20.10;;
6739;SDS011;3407;49.882;10.920;2022-08-19T01:22:47;29.57;;;20.03;;
6739;SDS011;3407;49.882;10.920;2022-08-19T01:27:51;30.30;;;20.77;;
6739;SDS011;3407;49.882;10.920;2022-08-19T01:32:47;27.60;;;19.37;;
6739;SDS011;3407;49.882;10.920;2022-08-19T01:37:50;28.10;;;20.37;;
6739;SDS011;3407;49.882;10.920;2022-08-19T01:42:48;25.97;;;19.23;;
6739;SDS011;3407;49.882;10.920;2022-08-19T01:47:45;30.43;;;21.17;;
6739;SDS011;3407;49.882;10.920;2022-08-19T01:52:41;27.13;;;19.40;;
6739;SDS011;3407;49.882;10.920;2022-08-19T01:57:38;26.23;;;19.40;;
6739;SDS011;3407;49.882;10.920;2022-08-19T02:02:36;30.53;;;20.00;;
6739;SDS011;3407;49.882;10.920;2022-08-19T02:07:31;27.07;;;19.03;;
6739;SDS011;3407;49.882;10.920;2022-08-19T02:12:27;32.97;;;21.83;;
6739;SDS011;3407;49.882;10.920;2022-08-19T02:17:23;28.30;;;19.80;;
6739;SDS011;3407;49.882;10.920;2022-08-19T02:22:18;31.17;;;20.10;;
6739;SDS011;3407;49.882;10.920;2022-08-19T02:27:14;35.90;;;19.73;;
6739;SDS011;3407;49.882;10.920;2022-08-19T02:32:10;31.63;;;20.80;;
6739;SDS011;3407;49.882;10.920;2022-08-19T02:37:06;29.23;;;18.77;;
6739;SDS011;3407;49.882;10.920;2022-08-19T02:42:22;29.07;;;20.60;;
6739;SDS011;3407;49.882;10.920;2022-08-19T02:47:18;28.20;;;20.70;;
6739;SDS011;3407;49.882;10.920;2022-08-19T02:52:14;27.20;;;18.77;;
6739;SDS011;3407;49.882;10.920;2022-08-19T02:57:09;30.00;;;18.37;;
6739;SDS011;3407;49.882;10.920;2022-08-19T03:02:05;25.73;;;18.27;;
6739;SDS011;3407;49.882;10.920;2022-08-19T03:07:00;27.33;;;18.47;;
6739;SDS011;3407;49.882;10.920;2022-08-19T03:11:56;27.83;;;19.47;;
6739;SDS011;3407;49.882;10.920;2022-08-19T03:16:51;25.40;;;17.47;;
6739;SDS011;3407;49.882;10.920;2022-08-19T03:21:47;27.60;;;18.90;;
6739;SDS011;3407;49.882;10.920;2022-08-19T03:26:51;26.90;;;17.87;;
6739;SDS011;3407;49.882;10.920;2022-08-19T03:31:52;27.30;;;17.87;;
6739;SDS011;3407;49.882;10.920;2022-08-19T03:36:49;26.90;;;18.50;;
6739;SDS011;3407;49.882;10.920;2022-08-19T03:41:45;25.53;;;18.10;;
6739;SDS011;3407;49.882;10.920;2022-08-19T03:46:42;26.70;;;17.70;;
6739;SDS011;3407;49.882;10.920;2022-08-19T03:51:38;25.00;;;16.63;;
6739;SDS011;3407;49.882;10.920;2022-08-19T03:56:34;25.17;;;18.07;;
6739;SDS011;3407;49.882;10.920;2022-08-19T04:01:31;28.00;;;18.73;;
6739;SDS011;3407;49.882;10.920;2022-08-19T04:06:30;25.67;;;18.97;;
6739;SDS011;3407;49.882;10.920;2022-08-19T04:11:29;25.30;;;18.17;;
6739;SDS011;3407;49.882;10.920;2022-08-19T04:16:28;26.40;;;19.67;;
6739;SDS011;3407;49.882;10.920;2022-08-19T04:21:25;27.43;;;19.73;;
6739;SDS011;3407;49.882;10.920;2022-08-19T04:26:22;26.77;;;19.63;;
6739;SDS011;3407;49.882;10.920;2022-08-19T04:31:24;33.00;;;21.97;;
6739;SDS011;3407;49.882;10.920;2022-08-19T04:36:22;28.17;;;19.00;;
6739;SDS011;3407;49.882;10.920;2022-08-19T04:41:19;26.67;;;17.83;;
6739;SDS011;3407;49.882;10.920;2022-08-19T04:46:34;29.13;;;18.83;;
6739;SDS011;3407;49.882;10.920;2022-08-19T04:51:29;31.10;;;19.77;;
6739;SDS011;3407;49.882;10.920;2022-08-19T04:56:26;27.50;;;18.53;;
6739;SDS011;3407;49.882;10.920;2022-08-19T05:01:23;25.53;;;18.50;;
6739;SDS011;3407;49.882;10.920;2022-08-19T05:06:21;30.57;;;19.73;;
6739;SDS011;3407;49.882;10.920;2022-08-19T05:11:22;27.73;;;17.57;;
6739;SDS011;3407;49.882;10.920;2022-08-19T05:16:21;26.87;;;18.00;;
6739;SDS011;3407;49.882;10.920;2022-08-19T05:21:18;24.93;;;17.53;;
6739;SDS011;3407;49.882;10.920;2022-08-19T05:26:33;24.13;;;18.10;;
6739;SDS011;3407;49.882;10.920;2022-08-19T05:31:29;27.13;;;17.17;;
6739;SDS011;3407;49.882;10.920;2022-08-19T05:36:26;22.63;;;16.93;;
6739;SDS011;3407;49.882;10.920;2022-08-19T05:41:22;25.63;;;17.77;;
6739;SDS011;3407;49.882;10.920;2022-08-19T05:46:24;29.30;;;20.00;;
6739;SDS011;3407;49.882;10.920;2022-08-19T05:51:19;27.73;;;18.97;;
6739;SDS011;3407;49.882;10.920;2022-08-19T05:56:15;25.87;;;17.87;;
6739;SDS011;3407;49.882;10.920;2022-08-19T06:01:13;29.03;;;18.77;;
6739;SDS011;3407;49.882;10.920;2022-08-19T06:06:11;29.00;;;18.60;;
6739;SDS011;3407;49.882;10.920;2022-08-19T06:11:19;28.17;;;18.30;;
6739;SDS011;3407;49.882;10.920;2022-08-19T06:16:17;28.97;;;19.27;;
6739;SDS011;3407;49.882;10.920;2022-08-19T06:21:18;26.83;;;18.40;;
6739;SDS011;3407;49.882;10.920;2022-08-19T06:26:17;28.47;;;19.27;;
6739;SDS011;3407;49.882;10.920;2022-08-19T06:31:14;31.73;;;19.00;;
6739;SDS011;3407;49.882;10.920;2022-08-19T06:36:30;31.43;;;19.77;;
6739;SDS011;3407;49.882;10.920;2022-08-19T06:41:30;27.27;;;17.80;;
6739;SDS011;3407;49.882;10.920;2022-08-19T06:46:29;31.43;;;19.50;;
6739;SDS011;3407;49.882;10.920;2022-08-19T06:51:25;27.20;;;18.63;;
6739;SDS011;3407;49.882;10.920;2022-08-19T06:56:22;25.60;;;17.80;;
6739;SDS011;3407;49.882;10.920;2022-08-19T07:01:29;29.23;;;18.70;;
6739;SDS011;3407;49.882;10.920;2022-08-19T07:06:24;27.63;;;18.77;;
6739;SDS011;3407;49.882;10.920;2022-08-19T07:11:20;21.67;;;16.10;;
6739;SDS011;3407;49.882;10.920;2022-08-19T07:16:17;24.33;;;15.97;;
6739;SDS011;3407;49.882;10.920;2022-08-19T07:21:15;19.67;;;14.30;;
6739;SDS011;3407;49.882;10.920;2022-08-19T07:26:17;19.03;;;14.40;;
6739;SDS011;3407;49.882;10.920;2022-08-19T07:31:16;26.10;;;15.77;;
6739;SDS011;3407;49.882;10.920;2022-08-19T07:36:14;19.77;;;13.10;;
6739;SDS011;3407;49.882;10.920;2022-08-19T07:41:12;21.80;;;14.03;;
6739;SDS011;3407;49.882;10.920;2022-08-19T07:46:10;17.03;;;13.40;;
6739;SDS011;3407;49.882;10.920;2022-08-19T07:51:09;25.60;;;14.33;;
6739;SDS011;3407;49.882;10.920;2022-08-19T07:56:05;20.67;;;15.00;;
6739;SDS011;3407;49.882;10.920;2022-08-19T08:01:02;21.77;;;14.37;;
6739;SDS011;3407;49.882;10.920;2022-08-19T08:05:59;19.23;;;13.60;;
6739;SDS011;3407;49.882;10.920;2022-08-19T08:11:14;18.90;;;12.87;;
6739;SDS011;3407;49.882;10.920;2022-08-19T08:16:15;15.57;;;12.80;;
6739;SDS011;3407;49.882;10.920;2022-08-19T08:21:10;19.40;;;15.10;;
6739;SDS011;3407;49.882;10.920;2022-08-19T08:26:06;20.30;;;13.83;;
6739;SDS011;3407;49.882;10.920;2022-08-19T08:31:01;16.07;;;12.00;;
6739;SDS011;3407;49.882;10.920;2022-08-19T08:35:57;19.87;;;12.03;;
6739;SDS011;3407;49.882;10.920;2022-08-19T08:41:00;18.27;;;12.20;;
6739;SDS011;3407;49.882;10.920;2022-08-19T08:46:05;18.50;;;11.83;;
6739;SDS011;3407;49.882;10.920;2022-08-19T08:51:06;16.47;;;11.90;;
6739;SDS011;3407;49.882;10.920;2022-08-19T08:56:06;14.70;;;10.47;;
6739;SDS011;3407;49.882;10.920;2022-08-19T09:01:03;15.77;;;11.53;;
6739;SDS011;3407;49.882;10.920;2022-08-19T09:06:03;15.00;;;11.13;;
6739;SDS011;3407;49.882;10.920;2022-08-19T09:11:04;14.03;;;10.93;;
6739;SDS011;3407;49.882;10.920;2022-08-19T09:16:08;16.43;;;12.20;;
6739;SDS011;3407;49.882;10.920;2022-08-19T09:21:09;14.47;;;11.90;;
6739;SDS011;3407;49.882;10.920;2022-08-19T09:26:11;13.50;;;10.70;;
6739;SDS011;3407;49.882;10.920;2022-08-19T09:31:10;14.80;;;11.07;;
6739;SDS011;3407;49.882;10.920;2022-08-19T09:36:10;16.30;;;11.37;;
6739;SDS011;3407;49.882;10.920;2022-08-19T09:41:08;13.10;;;10.37;;
6739;SDS011;3407;49.882;10.920;2022-08-19T09:46:08;13.37;;;11.40;;
6739;SDS011;3407;49.882;10.920;2022-08-19T09:51:12;14.30;;;10.43;;
6739;SDS011;3407;49.882;10.920;2022-08-19T09:56:11;14.93;;;11.40;;
6739;SDS011;3407;49.882;10.920;2022-08-19T10:01:08;11.30;;;9.97;;
6739;SDS011;3407;49.882;10.920;2022-08-19T10:06:09;16.17;;;11.20;;
6739;SDS011;3407;49.882;10.920;2022-08-19T10:11:05;13.53;;;11.27;;
6739;SDS011;3407;49.882;10.920;2022-08-19T10:16:08;15.60;;;11.60;;
6739;SDS011;3407;49.882;10.920;2022-08-19T10:21:08;16.53;;;11.70;;
6739;SDS011;3407;49.882;10.920;2022-08-19T10:26:05;13.83;;;11.63;;
6739;SDS011;3407;49.882;10.920;2022-08-19T10:31:11;16.10;;;12.90;;
6739;SDS011;3407;49.882;10.920;2022-08-19T10:36:12;17.40;;;12.30;;
6739;SDS011;3407;49.882;10.920;2022-08-19T10:41:18;18.07;;;12.03;;
6739;SDS011;3407;49.882;10.920;2022-08-19T10:46:17;16.97;;;12.43;;
6739;SDS011;3407;49.882;10.920;2022-08-19T10:51:13;17.00;;;13.03;;
6739;SDS011;3407;49.882;10.920;2022-08-19T10:56:28;15.53;;;12.13;;
6739;SDS011;3407;49.882;10.920;2022-08-19T11:01:43;16.90;;;12.87;;
6739;SDS011;3407;49.882;10.920;2022-08-19T11:06:40;14.93;;;11.30;;
6739;SDS011;3407;49.882;10.920;2022-08-19T11:11:38;18.50;;;14.43;;
6739;SDS011;3407;49.882;10.920;2022-08-19T11:16:37;15.83;;;12.07;;
6739;SDS011;3407;49.882;10.920;2022-08-19T11:21:37;14.03;;;12.00;;
6739;SDS011;3407;49.882;10.920;2022-08-19T11:26:35;13.77;;;11.27;;
6739;SDS011;3407;49.882;10.920;2022-08-19T11:31:33;13.57;;;11.23;;
6739;SDS011;3407;49.882;10.920;2022-08-19T11:36:34;13.00;;;10.90;;
6739;SDS011;3407;49.882;10.920;2022-08-19T11:41:33;18.30;;;12.87;;
6739;SDS011;3407;49.882;10.920;2022-08-19T11:46:29;19.03;;;11.27;;
6739;SDS011;3407;49.882;10.920;2022-08-19T11:51:25;14.97;;;11.47;;
6739;SDS011;3407;49.882;10.920;2022-08-19T11:56:22;16.50;;;11.53;;
6739;SDS011;3407;49.882;10.920;2022-08-19T12:01:19;13.77;;;9.77;;
6739;SDS011;3407;49.882;10.920;2022-08-19T12:06:19;13.23;;;9.83;;
6739;SDS011;3407;49.882;10.920;2022-08-19T12:11:20;13.33;;;10.53;;
6739;SDS011;3407;49.882;10.920;2022-08-19T12:16:17;11.63;;;9.67;;
6739;SDS011;3407;49.882;10.920;2022-08-19T12:21:16;12.13;;;9.63;;
6739;SDS011;3407;49.882;10.920;2022-08-19T12:26:16;10.60;;;8.87;;
6739;SDS011;3407;49.882;10.920;2022-08-19T12:31:12;11.47;;;9.50;;
6739;SDS011;3407;49.882;10.920;2022-08-19T12:36:08;10.27;;;8.93;;
6739;SDS011;3407;49.882;10.920;2022-08-19T12:41:06;14.43;;;10.23;;
6739;SDS011;3407;49.882;10.920;2022-08-19T12:46:04;16.90;;;9.43;;
6739;SDS011;3407;49.882;10.920;2022-08-19T12:51:05;15.47;;;9.83;;
6739;SDS011;3407;49.882;10.920;2022-08-19T12:56:02;15.87;;;10.97;;
6739;SDS011;3407;49.882;10.920;2022-08-19T13:00:58;16.53;;;10.27;;
6739;SDS011;3407;49.882;10.920;2022-08-19T13:05:53;13.67;;;10.80;;
6739;SDS011;3407;49.882;10.920;2022-08-19T13:10:49;12.23;;;10.03;;
6739;SDS011;3407;49.882;10.920;2022-08-19T13:15:44;16.57;;;10.77;;
6739;SDS011;3407;49.882;10.920;2022-08-19T13:20:40;9.13;;;8.07;;
6739;SDS011;3407;49.882;10.920;2022-08-19T13:25:36;11.67;;;8.80;;
6739;SDS011;3407;49.882;10.920;2022-08-19T13:30:31;10.23;;;9.10;;
6739;SDS011;3407;49.882;10.920;2022-08-19T13:35:49;8.90;;;7.77;;
6739;SDS011;3407;49.882;10.920;2022-08-19T13:40:51;9.97;;;7.33;;
6739;SDS011;3407;49.882;10.920;2022-08-19T13:45:48;9.33;;;7.93;;
6739;SDS011;3407;49.882;10.920;2022-08-19T13:50:45;10.47;;;8.67;;
6739;SDS011;3407;49.882;10.920;2022-08-19T13:55:42;13.80;;;11.33;;
6739;SDS011;3407;49.882;10.920;2022-08-19T14:00:40;13.90;;;11.50;;
6739;SDS011;3407;49.882;10.920;2022-08-19T14:05:38;17.67;;;12.90;;
6739;SDS011;3407;49.882;10.920;2022-08-19T14:10:34;15.77;;;11.90;;
6739;SDS011;3407;49.882;10.920;2022-08-19T14:15:30;18.57;;;13.03;;
6739;SDS011;3407;49.882;10.920;2022-08-19T14:20:26;15.20;;;12.77;;
6739;SDS011;3407;49.882;10.920;2022-08-19T14:25:25;17.53;;;13.23;;
6739;SDS011;3407;49.882;10.920;2022-08-19T14:30:23;16.47;;;12.87;;
6739;SDS011;3407;49.882;10.920;2022-08-19T14:35:24;14.13;;;12.27;;
6739;SDS011;3407;49.882;10.920;2022-08-19T14:40:22;11.83;;;10.37;;
6739;SDS011;3407;49.882;10.920;2022-08-19T14:45:22;13.77;;;10.43;;
6739;SDS011;3407;49.882;10.920;2022-08-19T14:50:18;13.87;;;11.13;;
6739;SDS011;3407;49.882;10.920;2022-08-19T14:55:17;15.37;;;11.33;;
6739;SDS011;3407;49.882;10.920;2022-08-19T15:00:13;12.97;;;10.17;;
6739;SDS011;3407;49.882;10.920;2022-08-19T15:05:09;14.03;;;10.97;;
6739;SDS011;3407;49.882;10.920;2022-08-19T15:10:06;21.47;;;14.33;;
6739;SDS011;3407;49.882;10.920;2022-08-19T15:15:04;14.70;;;10.47;;
6739;SDS011;3407;49.882;10.920;2022-08-19T15:20:00;13.40;;;10.73;;
6739;SDS011;3407;49.882;10.920;2022-08-19T15:24:56;14.97;;;11.10;;
6739;SDS011;3407;49.882;10.920;2022-08-19T15:29:52;12.60;;;10.13;;
6739;SDS011;3407;49.882;10.920;2022-08-19T15:34:48;13.80;;;9.90;;
6739;SDS011;3407;49.882;10.920;2022-08-19T15:39:43;12.93;;;10.73;;
6739;SDS011;3407;49.882;10.920;2022-08-19T15:44:40;12.20;;;9.87;;
6739;SDS011;3407;49.882;10.920;2022-08-19T15:49:36;13.23;;;10.50;;
6739;SDS011;3407;49.882;10.920;2022-08-19T15:54:32;11.90;;;10.33;;
6739;SDS011;3407;49.882;10.920;2022-08-19T15:59:28;15.60;;;10.57;;
6739;SDS011;3407;49.882;10.920;2022-08-19T16:04:42;13.80;;;10.20;;
6739;SDS011;3407;49.882;10.920;2022-08-19T16:09:56;10.83;;;9.70;;
6739;SDS011;3407;49.882;10.920;2022-08-19T16:14:52;12.13;;;9.57;;
6739;SDS011;3407;49.882;10.920;2022-08-19T16:19:48;12.03;;;10.13;;
6739;SDS011;3407;49.882;10.920;2022-08-19T16:24:44;14.27;;;11.27;;
6739;SDS011;3407;49.882;10.920;2022-08-19T16:29:39;13.47;;;10.77;;
6739;SDS011;3407;49.882;10.920;2022-08-19T16:34:35;12.83;;;10.07;;
6739;SDS011;3407;49.882;10.920;2022-08-19T16:39:32;13.60;;;11.17;;
6739;SDS011;3407;49.882;10.920;2022-08-19T16:44:27;18.33;;;13.00;;
6739;SDS011;3407;49.882;10.920;2022-08-19T16:49:23;25.47;;;19.23;;
6739;SDS011;3407;49.882;10.920;2022-08-19T16:54:19;17.93;;;12.47;;
6739;SDS011;3407;49.882;10.920;2022-08-19T16:59:15;12.37;;;9.70;;
6739;SDS011;3407;49.882;10.920;2022-08-19T17:04:11;8.47;;;7.53;;
6739;SDS011;3407;49.882;10.920;2022-08-19T17:09:07;10.57;;;8.23;;
6739;SDS011;3407;49.882;10.920;2022-08-19T17:14:03;9.90;;;7.30;;
6739;SDS011;3407;49.882;10.920;2022-08-19T17:19:00;10.27;;;7.53;;
6739;SDS011;3407;49.882;10.920;2022-08-19T17:24:00;8.83;;;6.53;;
6739;SDS011;3407;49.882;10.920;2022-08-19T17:28:58;31.30;;;22.30;;
6739;SDS011;3407;49.882;10.920;2022-08-19T17:33:54;11.17;;;7.30;;
6739;SDS011;3407;49.882;10.920;2022-08-19T17:38:53;10.70;;;7.37;;
6739;SDS011;3407;49.882;10.920;2022-08-19T17:43:50;9.87;;;7.73;;
6739;SDS011;3407;49.882;10.920;2022-08-19T17:48:47;9.07;;;6.20;;
6739;SDS011;3407;49.882;10.920;2022-08-19T17:53:45;10.90;;;7.37;;
6739;SDS011;3407;49.882;10.920;2022-08-19T17:58:41;9.30;;;6.57;;
6739;SDS011;3407;49.882;10.920;2022-08-19T18:03:37;11.30;;;7.17;;
6739;SDS011;3407;49.882;10.920;2022-08-19T18:08:34;8.83;;;7.07;;
6739;SDS011;3407;49.882;10.920;2022-08-19T18:13:33;9.17;;;6.87;;
6739;SDS011;3407;49.882;10.920;2022-08-19T18:18:29;7.27;;;6.40;;
6739;SDS011;3407;49.882;10.920;2022-08-19T18:23:25;12.97;;;9.60;;
6739;SDS011;3407;49.882;10.920;2022-08-19T18:28:20;11.97;;;7.87;;
6739;SDS011;3407;49.882;10.920;2022-08-19T18:33:17;9.43;;;6.80;;
6739;SDS011;3407;49.882;10.920;2022-08-19T18:38:14;11.37;;;6.80;;
6739;SDS011;3407;49.882;10.920;2022-08-19T18:43:30;10.43;;;7.03;;
6739;SDS011;3407;49.882;10.920;2022-08-19T18:48:44;8.93;;;7.40;;
6739;SDS011;3407;49.882;10.920;2022-08-19T18:53:59;8.70;;;7.03;;
6739;SDS011;3407;49.882;10.920;2022-08-19T18:58:55;10.07;;;7.17;;
6739;SDS011;3407;49.882;10.920;2022-08-19T19:03:51;12.43;;;7.73;;
6739;SDS011;3407;49.882;10.920;2022-08-19T19:08:49;12.07;;;7.40;;
6739;SDS011;3407;49.882;10.920;2022-08-19T19:13:46;15.23;;;8.27;;
6739;SDS011;3407;49.882;10.920;2022-08-19T19:18:43;14.97;;;7.97;;
6739;SDS011;3407;49.882;10.920;2022-08-19T19:23:39;10.07;;;7.60;;
6739;SDS011;3407;49.882;10.920;2022-08-19T19:28:35;9.10;;;7.17;;
6739;SDS011;3407;49.882;10.920;2022-08-19T19:33:33;9.30;;;7.33;;
6739;SDS011;3407;49.882;10.920;2022-08-19T19:38:28;15.03;;;7.83;;
6739;SDS011;3407;49.882;10.920;2022-08-19T19:43:24;11.07;;;7.97;;
6739;SDS011;3407;49.882;10.920;2022-08-19T19:48:23;11.87;;;7.63;;
6739;SDS011;3407;49.882;10.920;2022-08-19T19:53:18;11.43;;;8.17;;
6739;SDS011;3407;49.882;10.920;2022-08-19T19:58:14;12.50;;;8.00;;
6739;SDS011;3407;49.882;10.920;2022-08-19T20:03:09;10.17;;;7.60;;
6739;SDS011;3407;49.882;10.920;2022-08-19T20:08:05;11.17;;;8.67;;
6739;SDS011;3407;49.882;10.920;2022-08-19T20:13:19;11.87;;;8.50;;
6739;SDS011;3407;49.882;10.920;2022-08-19T20:18:16;10.40;;;8.23;;
6739;SDS011;3407;49.882;10.920;2022-08-19T20:23:12;11.10;;;7.97;;
6739;SDS011;3407;49.882;10.920;2022-08-19T20:28:07;10.47;;;7.67;;
6739;SDS011;3407;49.882;10.920;2022-08-19T20:33:03;12.47;;;8.63;;
6739;SDS011;3407;49.882;10.920;2022-08-19T20:38:02;10.53;;;8.07;;
6739;SDS011;3407;49.882;10.920;2022-08-19T20:43:05;11.70;;;8.07;;
6739;SDS011;3407;49.882;10.920;2022-08-19T20:48:03;11.60;;;8.53;;
6739;SDS011;3407;49.882;10.920;2022-08-19T20:53:00;10.17;;;8.00;;
6739;SDS011;3407;49.882;10.920;2022-08-19T20:58:04;12.53;;;9.17;;
6739;SDS011;3407;49.882;10.920;2022-08-19T21:02:59;15.53;;;8.70;;
6739;SDS011;3407;49.882;10.920;2022-08-19T21:07:55;16.00;;;9.33;;
6739;SDS011;3407;49.882;10.920;2022-08-19T21:12:51;12.33;;;8.90;;
6739;SDS011;3407;49.882;10.920;2022-08-19T21:17:47;14.87;;;9.73;;
6739;SDS011;3407;49.882;10.920;2022-08-19T21:22:48;14.97;;;10.03;;
6739;SDS011;3407;49.882;10.920;2022-08-19T21:27:43;14.53;;;10.33;;
6739;SDS011;3407;49.882;10.920;2022-08-19T21:32:39;14.07;;;9.47;;
6739;SDS011;3407;49.882;10.920;2022-08-19T21:37:34;12.77;;;9.07;;
6739;SDS011;3407;49.882;10.920;2022-08-19T21:42:32;13.47;;;9.20;;
6739;SDS011;3407;49.882;10.920;2022-08-19T21:47:28;13.63;;;10.13;;
6739;SDS011;3407;49.882;10.920;2022-08-19T21:52:25;13.93;;;9.87;;
6739;SDS011;3407;49.882;10.920;2022-08-19T21:57:21;13.13;;;9.90;;
6739;SDS011;3407;49.882;10.920;2022-08-19T22:02:18;13.87;;;9.67;;
6739;SDS011;3407;49.882;10.920;2022-08-19T22:07:14;13.77;;;9.93;;
6739;SDS011;3407;49.882;10.920;2022-08-19T22:12:22;14.70;;;10.90;;
6739;SDS011;3407;49.882;10.920;2022-08-19T22:17:20;14.87;;;10.17;;
6739;SDS011;3407;49.882;10.920;2022-08-19T22:22:35;15.23;;;11.13;;
6739;SDS011;3407;49.882;10.920;2022-08-19T22:27:32;15.37;;;9.83;;
6739;SDS011;3407;49.882;10.920;2022-08-19T22:32:29;10.57;;;9.07;;
6739;SDS011;3407;49.882;10.920;2022-08-19T22:37:25;14.07;;;9.93;;
6739;SDS011;3407;49.882;10.920;2022-08-19T22:42:23;15.73;;;10.87;;
6739;SDS011;3407;49.882;10.920;2022-08-19T22:47:19;16.47;;;11.63;;
6739;SDS011;3407;49.882;10.920;2022-08-19T22:52:15;16.93;;;11.97;;
6739;SDS011;3407;49.882;10.920;2022-08-19T22:57:13;15.63;;;11.17;;
6739;SDS011;3407;49.882;10.920;2022-08-19T23:02:09;16.27;;;11.30;;
6739;SDS011;3407;49.882;10.920;2022-08-19T23:07:05;15.63;;;11.13;;
6739;SDS011;3407;49.882;10.920;2022-08-19T23:12:02;14.77;;;10.73;;
6739;SDS011;3407;49.882;10.920;2022-08-19T23:16:58;14.37;;;10.73;;
6739;SDS011;3407;49.882;10.920;2022-08-19T23:21:53;17.13;;;11.77;;
6739;SDS011;3407;49.882;10.920;2022-08-19T23:26:50;12.87;;;10.50;;
6739;SDS011;3407;49.882;10.920;2022-08-19T23:32:04;17.23;;;11.50;;
6739;SDS011;3407;49.882;10.920;2022-08-19T23:37:00;14.97;;;11.17;;
6739;SDS011;3407;49.882;10.920;2022-08-19T23:41:56;17.67;;;12.00;;
6739;SDS011;3407;49.882;10.920;2022-08-19T23:46:52;21.07;;;12.43;;
6739;SDS011;3407;49.882;10.920;2022-08-19T23:51:47;15.10;;;11.00;;
6739;SDS011;3407;49.882;10.920;2022-08-19T23:56:43;14.07;;;9.70;;
